Time;durP1;ratioP1;P1;durP2;ratioP2;P2;SDS_P1;SDS_P2;PMS_P1;PMS_P2;Temp;Humidity;BMP_temperature;BMP_pressure;BME280_temperature;BME280_humidity;BME280_pressure;Samples;Min_cycle;Max_cycle;Signal;HPM_P1;HPM_P2
2022/04/15 00:01:21;;;;;;;40.67;18.05;;;;;;;-142.75;100.00;78423.06;4981999;28;20396;-64
2022/04/15 00:03:47;;;;;;;34.70;17.77;;;;;;;-142.75;100.00;78417.16;4973988;28;20323;-64
2022/04/15 00:06:12;;;;;;;34.92;17.33;;;;;;;-142.75;100.00;78423.06;4965521;28;20338;-66
2022/04/15 00:08:38;;;;;;;32.78;17.98;;;;;;;-142.75;100.00;78428.97;4975281;28;20297;-64
2022/04/15 00:11:04;;;;;;;29.33;17.38;;;;;;;-142.75;100.00;78432.91;4982425;28;20315;-64
2022/04/15 00:13:32;;;;;;;30.20;17.45;;;;;;;-142.75;100.00;78434.88;4962267;28;20320;-64
2022/04/15 00:16:05;;;;;;;33.15;16.83;;;;;;;-142.75;100.00;78436.84;4974417;28;20124;-64
2022/04/15 00:18:31;;;;;;;34.65;17.65;;;;;;;-142.75;100.00;78432.91;4976529;28;20033;-64
2022/04/15 00:20:56;;;;;;;;;;;;;;;-142.75;100.00;78448.66;4982812;28;20051;-65
2022/04/15 00:23:22;;;;;;;31.55;17.45;;;;;;;-142.75;100.00;78452.59;4984472;28;20191;-64
2022/04/15 00:25:52;;;;;;;31.65;17.55;;;;;;;-142.75;100.00;78460.47;4976382;28;20530;-66
2022/04/15 00:28:18;;;;;;;35.25;16.92;;;;;;;-142.75;100.00;78472.28;4983050;28;20090;-66
2022/04/15 00:30:44;;;;;;;30.13;17.05;;;;;;;-142.75;100.00;78468.34;4984731;28;20838;-65
2022/04/15 00:33:10;;;;;;;33.38;17.35;;;;;;;-142.75;100.00;78482.13;4987405;28;20052;-63
2022/04/15 00:35:35;;;;;;;37.33;18.38;;;;;;;-142.75;100.00;78488.03;4986302;28;20047;-65
2022/04/15 00:38:01;;;;;;;35.45;18.80;;;;;;;-142.75;100.00;78480.16;4985750;28;20326;-64
2022/04/15 00:40:26;;;;;;;34.95;18.58;;;;;;;-142.75;100.00;78476.22;4985249;28;20032;-65
2022/04/15 00:42:52;;;;;;;40.00;19.70;;;;;;;-142.75;100.00;78476.22;4986537;28;20311;-65
2022/04/15 00:45:18;;;;;;;39.05;19.48;;;;;;;-142.75;100.00;78474.25;4987151;28;20364;-65
2022/04/15 00:47:51;;;;;;;37.67;20.08;;;;;;;-142.75;100.00;78478.19;4984394;28;20072;-65
2022/04/15 00:50:18;;;;;;;41.03;19.17;;;;;;;-142.75;100.00;78478.19;4984536;28;20055;-64
2022/04/15 00:52:46;;;;;;;44.15;22.10;;;;;;;-142.75;100.00;78484.09;4985520;28;20021;-65
2022/04/15 00:55:13;;;;;;;39.72;20.30;;;;;;;-142.75;100.00;78484.09;4985381;28;20025;-65
2022/04/15 00:57:44;;;;;;;40.53;21.73;;;;;;;-142.75;100.00;78486.06;4985975;28;20044;-64
2022/04/15 01:00:13;;;;;;;39.90;21.50;;;;;;;-142.75;100.00;78470.31;4985731;28;20029;-65
2022/04/15 01:02:39;;;;;;;40.47;21.08;;;;;;;-142.75;100.00;78476.22;4986832;28;20021;-63
2022/04/15 01:05:07;;;;;;;40.15;21.35;;;;;;;-142.75;100.00;78480.16;4984648;28;20331;-64
2022/04/15 01:07:35;;;;;;;40.95;21.25;;;;;;;-142.75;100.00;78476.22;4986038;28;20064;-65
2022/04/15 01:10:03;;;;;;;40.67;21.20;;;;;;;-142.75;100.00;78480.16;4986887;28;20028;-66
2022/04/15 01:12:31;;;;;;;42.40;21.42;;;;;;;-142.75;100.00;78488.03;4984524;28;20033;-64
2022/04/15 01:15:02;;;;;;;40.00;21.63;;;;;;;-142.75;100.00;78484.09;4985830;28;20025;-65
2022/04/15 01:17:28;;;;;;;39.13;20.70;;;;;;;-142.75;100.00;78493.97;4985160;28;20036;-64
2022/04/15 01:19:54;;;;;;;34.45;20.70;;;;;;;-142.75;100.00;78497.91;4985406;28;20478;-64
2022/04/15 01:22:23;;;;;;;41.70;22.35;;;;;;;-142.75;100.00;78507.75;4986932;28;20040;-64
2022/04/15 01:24:48;;;;;;;31.13;18.52;;;;;;;-142.75;100.00;78515.63;4986296;28;20099;-65
2022/04/15 01:27:32;;;;;;;34.67;19.83;;;;;;;-142.75;100.00;78525.47;4985404;28;20021;-65
2022/04/15 01:29:58;;;;;;;36.63;20.85;;;;;;;-142.75;100.00;78529.41;4984994;28;20063;-65
2022/04/15 01:32:23;;;;;;;36.15;18.20;;;;;;;-142.75;100.00;78537.28;4985504;28;20333;-64
2022/04/15 01:34:49;;;;;;;37.83;20.77;;;;;;;-142.75;100.00;78535.31;4983783;28;20428;-64
2022/04/15 01:37:16;;;;;;;37.47;19.42;;;;;;;-142.75;100.00;78529.41;4984719;28;20560;-64
2022/04/15 01:39:43;;;;;;;41.60;20.03;;;;;;;-142.75;100.00;78539.25;4983772;28;20051;-63
2022/04/15 01:42:12;;;;;;;35.13;20.43;;;;;;;-142.75;100.00;78547.13;4984643;28;20110;-64
2022/04/15 01:44:40;;;;;;;40.03;21.13;;;;;;;-142.75;100.00;78553.03;4984753;28;20039;-65
2022/04/15 01:47:05;;;;;;;35.13;19.25;;;;;;;-142.75;100.00;78549.09;4984825;28;20033;-63
2022/04/15 01:49:31;;;;;;;37.17;20.77;;;;;;;-142.75;100.00;78547.13;4967769;28;20087;-64
2022/04/15 01:51:56;;;;;;;34.35;19.42;;;;;;;-142.75;100.00;78553.03;4982481;28;20526;-64
2022/04/15 01:54:22;;;;;;;43.53;21.33;;;;;;;-142.75;100.00;78555.00;4986393;28;20375;-65
2022/04/15 01:56:47;;;;;;;44.97;21.83;;;;;;;-142.75;100.00;78553.03;4985774;28;20322;-64
2022/04/15 01:59:12;;;;;;;58.85;23.27;;;;;;;-142.75;100.00;78531.38;4983977;28;20357;-63
2022/04/15 02:01:38;;;;;;;57.47;25.90;;;;;;;-142.75;100.00;78529.41;4983312;28;20357;-64
2022/04/15 02:04:03;;;;;;;64.88;26.60;;;;;;;-142.75;100.00;78525.47;4980689;28;20488;-65
2022/04/15 02:06:29;;;;;;;58.72;25.73;;;;;;;-142.75;100.00;78519.56;4985273;28;20329;-64
2022/04/15 02:08:54;;;;;;;60.53;25.75;;;;;;;-142.75;100.00;78517.59;4984460;28;20313;-64
2022/04/15 02:11:20;;;;;;;58.85;25.77;;;;;;;-142.75;100.00;78521.53;4983485;28;20307;-65
2022/04/15 02:13:45;;;;;;;53.92;26.23;;;;;;;-142.75;100.00;78519.56;4982744;28;20024;-64
2022/04/15 02:16:11;;;;;;;52.20;27.50;;;;;;;-142.75;100.00;78523.50;4972228;28;20457;-63
2022/04/15 02:18:37;;;;;;;61.95;25.27;;;;;;;-142.75;100.00;78527.44;4982181;28;20463;-64
2022/04/15 02:21:02;;;;;;;48.90;22.83;;;;;;;-142.75;100.00;78527.44;4983613;28;20053;-66
2022/04/15 02:23:27;;;;;;;58.55;22.30;;;;;;;-142.75;100.00;78525.47;4983438;28;20051;-65
2022/04/15 02:25:53;;;;;;;43.42;20.40;;;;;;;-142.75;100.00;78539.25;4983462;28;20300;-64
2022/04/15 02:28:18;;;;;;;37.78;20.05;;;;;;;-142.75;100.00;78535.31;4985597;28;20333;-64
2022/04/15 02:30:47;;;;;;;35.83;18.95;;;;;;;-142.75;100.00;78543.19;4984518;28;20459;-65
2022/04/15 02:33:16;;;;;;;47.30;22.00;;;;;;;-142.75;100.00;78543.19;4985207;28;20025;-65
2022/04/15 02:35:42;;;;;;;43.50;21.83;;;;;;;-142.75;100.00;78537.28;4982486;28;20021;-65
2022/04/15 02:38:07;;;;;;;39.78;21.35;;;;;;;-142.75;100.00;78535.31;4983729;28;20342;-65
2022/04/15 02:40:33;;;;;;;39.75;20.75;;;;;;;-142.75;100.00;78527.44;4984026;28;20441;-64
2022/04/15 02:43:00;;;;;;;42.20;22.52;;;;;;;-142.75;100.00;78523.50;4982807;28;20449;-65
2022/04/15 02:45:26;;;;;;;49.60;20.97;;;;;;;-142.75;100.00;78519.56;4983648;28;20029;-66
2022/04/15 02:47:51;;;;;;;42.00;20.90;;;;;;;-142.75;100.00;78511.69;4984320;28;20037;-63
2022/04/15 02:50:17;;;;;;;39.88;20.45;;;;;;;-142.75;100.00;78507.75;4982541;28;20071;-65
2022/04/15 02:52:42;;;;;;;36.35;19.38;;;;;;;-142.75;100.00;78503.81;4984426;28;20372;-64
2022/04/15 02:55:08;;;;;;;41.85;19.88;;;;;;;-142.75;100.00;78503.81;4983322;28;20186;-66
2022/04/15 02:57:33;;;;;;;41.40;19.48;;;;;;;-142.75;100.00;78497.91;4982108;28;20349;-65
2022/04/15 02:59:59;;;;;;;34.40;19.05;;;;;;;-142.75;100.00;78499.88;4982862;28;20357;-65
2022/04/15 03:02:31;;;;;;;32.60;17.88;;;;;;;-142.75;100.00;78509.72;4984660;28;20330;-64
2022/04/15 03:04:56;;;;;;;28.20;16.35;;;;;;;-142.75;100.00;78503.81;4983510;28;20055;-65
2022/04/15 03:07:22;;;;;;;20.27;12.50;;;;;;;-142.75;100.00;78513.66;4982052;28;20350;-65
2022/04/15 03:09:47;;;;;;;23.17;13.30;;;;;;;-142.75;100.00;78505.78;4982827;28;20469;-65
2022/04/15 03:12:13;;;;;;;23.73;14.38;;;;;;;-142.75;100.00;78515.63;4982745;28;20203;-64
2022/04/15 03:14:39;;;;;;;23.30;13.65;;;;;;;-142.75;100.00;78509.72;4984673;28;20059;-65
2022/04/15 03:17:05;;;;;;;20.10;12.40;;;;;;;-142.75;100.00;78515.63;4983662;28;20044;-63
2022/04/15 03:19:31;;;;;;;20.33;11.38;;;;;;;-142.75;100.00;78511.69;4969577;28;20017;-65
2022/04/15 03:21:57;;;;;;;20.20;11.88;;;;;;;-142.75;100.00;78499.88;4978444;28;20344;-63
2022/04/15 03:24:22;;;;;;;18.33;11.07;;;;;;;-142.75;100.00;78505.78;4983567;28;20361;-64
2022/04/15 03:26:48;;;;;;;21.15;11.25;;;;;;;-142.75;100.00;78507.75;4982849;28;20357;-65
2022/04/15 03:29:13;;;;;;;18.67;9.90;;;;;;;-142.75;100.00;78501.84;5010582;22;20410;-64
2022/04/15 03:31:39;;;;;;;16.65;10.60;;;;;;;-142.75;100.00;78499.88;4972091;28;20056;-64
2022/04/15 03:34:04;;;;;;;16.67;10.25;;;;;;;-142.75;100.00;78493.97;4966202;28;20589;-64
2022/04/15 03:36:30;;;;;;;16.83;10.13;;;;;;;-142.75;100.00;78491.97;4980329;28;20313;-64
2022/04/15 03:38:55;;;;;;;20.17;11.68;;;;;;;-142.75;100.00;78491.97;4974233;28;20353;-65
2022/04/15 03:41:22;;;;;;;20.55;12.05;;;;;;;-142.75;100.00;78491.97;4969593;28;20047;-64
2022/04/15 03:43:49;;;;;;;17.00;10.73;;;;;;;-142.75;100.00;78491.97;4974309;28;20029;-64
2022/04/15 03:46:14;;;;;;;19.42;11.73;;;;;;;-142.75;100.00;78499.88;4979186;28;20025;-64
2022/04/15 03:48:40;;;;;;;19.65;11.27;;;;;;;-142.75;100.00;78491.97;4963437;28;20168;-64
2022/04/15 03:51:07;;;;;;;15.65;9.75;;;;;;;-142.75;100.00;78491.97;4982793;28;20365;-64
2022/04/15 03:53:33;;;;;;;16.97;11.50;;;;;;;-142.75;100.00;78495.94;4971647;28;20025;-64
2022/04/15 03:55:58;;;;;;;18.30;11.05;;;;;;;-142.75;100.00;78484.09;4960603;28;20340;-64
2022/04/15 03:58:24;;;;;;;21.35;12.05;;;;;;;-142.75;100.00;78484.09;4978119;28;20325;-64
2022/04/15 04:00:49;;;;;;;19.35;11.50;;;;;;;-142.75;100.00;78495.94;4969490;28;20390;-64
2022/04/15 04:03:15;;;;;;;19.17;10.88;;;;;;;-142.75;100.00;78495.94;4980203;28;20445;-64
2022/04/15 04:05:41;;;;;;;19.73;11.02;;;;;;;-142.75;100.00;78495.94;4985603;28;20307;-64
2022/04/15 04:08:06;;;;;;;16.98;9.82;;;;;;;-142.75;100.00;78535.31;4985324;28;20067;-64
2022/04/15 04:10:33;;;;;;;17.00;10.60;;;;;;;-142.75;100.00;78545.16;4983411;28;20333;-64
2022/04/15 04:12:59;;;;;;;16.42;9.35;;;;;;;-142.75;100.00;78553.03;4982472;28;20123;-64
2022/04/15 04:15:25;;;;;;;17.83;10.50;;;;;;;-142.75;100.00;78553.03;4975609;28;20309;-64
2022/04/15 04:17:50;;;;;;;18.27;10.20;;;;;;;-142.75;100.00;78562.88;4973529;28;20394;-65
2022/04/15 04:20:18;;;;;;;19.70;10.60;;;;;;;-142.75;100.00;78549.09;4967269;28;20335;-64
2022/04/15 04:22:44;;;;;;;16.55;9.57;;;;;;;-142.75;100.00;78555.00;4975354;28;20040;-63
2022/04/15 04:25:10;;;;;;;18.00;8.95;;;;;;;-142.75;100.00;78553.03;4971318;28;20061;-64
2022/04/15 04:27:36;;;;;;;14.55;9.20;;;;;;;-142.75;100.00;78541.22;4975271;28;20342;-66
2022/04/15 04:30:03;;;;;;;14.77;8.20;;;;;;;-142.75;100.00;78547.13;4973320;28;20546;-66
2022/04/15 04:32:29;;;;;;;15.68;8.88;;;;;;;-142.75;100.00;78549.09;4985118;28;20024;-66
2022/04/15 04:34:54;;;;;;;16.50;9.60;;;;;;;-142.75;100.00;78537.28;4982231;28;20361;-67
2022/04/15 04:37:20;;;;;;;16.33;8.93;;;;;;;-142.75;100.00;78549.09;4976418;28;20329;-64
2022/04/15 04:39:46;;;;;;;16.48;9.40;;;;;;;-142.75;100.00;78551.06;4970825;28;20319;-64
2022/04/15 04:42:11;;;;;;;16.33;9.32;;;;;;;-142.75;100.00;78564.84;4968488;28;20317;-63
2022/04/15 04:44:38;;;;;;;18.95;10.15;;;;;;;-142.75;100.00;78562.88;4975039;28;20252;-64
2022/04/15 04:47:09;;;;;;;17.83;9.97;;;;;;;-142.75;100.00;78549.09;4979997;28;20029;-66
2022/04/15 04:49:36;;;;;;;20.88;11.52;;;;;;;-142.75;100.00;78560.91;4964946;28;20144;-64
2022/04/15 04:52:02;;;;;;;;;;;;;;;-142.75;100.00;78568.78;4976624;28;20021;-64
2022/04/15 04:54:28;;;;;;;18.00;11.20;;;;;;;-142.75;100.00;78570.75;4982486;28;20027;-64
2022/04/15 04:56:53;;;;;;;19.05;11.02;;;;;;;-142.75;100.00;78568.78;4980772;28;20087;-64
2022/04/15 04:59:22;;;;;;;19.73;11.65;;;;;;;-142.75;100.00;78572.72;4972550;28;20135;-64
2022/04/15 05:01:47;;;;;;;22.30;13.60;;;;;;;-142.75;100.00;78562.88;4970815;28;20034;-64
2022/04/15 05:04:13;;;;;;;22.17;12.45;;;;;;;-142.75;100.00;78553.03;4975668;28;20539;-64
2022/04/15 05:06:38;;;;;;;22.75;12.45;;;;;;;-142.75;100.00;78551.06;4974641;28;20381;-64
2022/04/15 05:09:04;;;;;;;17.50;11.95;;;;;;;-142.75;100.00;78547.13;4961835;28;20057;-64
2022/04/15 05:11:29;;;;;;;22.08;12.60;;;;;;;-142.75;100.00;78551.06;4971165;28;20358;-64
2022/04/15 05:13:55;;;;;;;22.05;13.05;;;;;;;-142.75;100.00;78549.09;4976058;28;20319;-64
2022/04/15 05:16:20;;;;;;;21.40;12.20;;;;;;;-142.75;100.00;78555.00;4973115;28;20198;-64
2022/04/15 05:18:46;;;;;;;17.15;9.90;;;;;;;-142.75;100.00;78547.13;4982233;28;20508;-64
2022/04/15 05:21:12;;;;;;;21.55;9.98;;;;;;;-142.75;100.00;78549.09;4971135;28;20345;-64
2022/04/15 05:23:38;;;;;;;15.70;9.23;;;;;;;-142.75;100.00;78562.88;4974928;28;20754;-64
2022/04/15 05:26:04;;;;;;;15.63;9.63;;;;;;;-142.75;100.00;78553.03;4981031;28;20028;-64
2022/04/15 05:28:32;;;;;;;21.60;10.48;;;;;;;-142.75;100.00;78555.00;4968178;28;20057;-64
2022/04/15 05:30:58;;;;;;;17.90;10.05;;;;;;;-142.75;100.00;78551.06;4974434;28;20032;-64
2022/04/15 05:33:23;;;;;;;15.80;9.52;;;;;;;-142.75;100.00;78562.88;4969857;28;20190;-64
2022/04/15 05:35:49;;;;;;;19.35;10.82;;;;;;;-142.75;100.00;78562.88;4975395;28;20314;-64
2022/04/15 05:38:14;;;;;;;17.30;10.52;;;;;;;-142.75;100.00;78553.03;4982393;28;20306;-64
2022/04/15 05:40:40;;;;;;;16.83;10.38;;;;;;;-142.75;100.00;78555.00;4982164;28;20299;-63
2022/04/15 05:43:05;;;;;;;18.30;10.05;;;;;;;-142.75;100.00;78555.00;4985015;28;20427;-63
2022/04/15 05:45:30;;;;;;;19.27;10.57;;;;;;;-142.75;100.00;78558.94;4971488;28;20048;-64
2022/04/15 05:47:57;;;;;;;20.55;9.23;;;;;;;-142.75;100.00;78551.06;4975169;28;20017;-64
2022/04/15 05:50:24;;;;;;;15.93;9.35;;;;;;;-142.75;100.00;78582.59;4969465;28;20028;-64
2022/04/15 05:52:49;;;;;;;18.55;9.60;;;;;;;-142.75;100.00;78594.41;4974494;28;20040;-64
2022/04/15 05:55:15;;;;;;;14.98;8.02;;;;;;;-142.75;100.00;78602.28;4971581;28;20257;-64
2022/04/15 05:57:40;;;;;;;13.75;8.00;;;;;;;-142.75;100.00;78621.97;4975843;28;20556;-64
2022/04/15 06:00:07;;;;;;;14.75;8.63;;;;;;;-142.75;100.00;78618.03;5025343;28;20021;-66
2022/04/15 06:02:32;;;;;;;16.23;8.05;;;;;;;-142.75;100.00;78635.75;5039578;28;20025;-66
2022/04/15 06:04:58;;;;;;;15.98;8.82;;;;;;;-142.75;100.00;78618.03;5039170;28;20029;-64
2022/04/15 06:07:23;;;;;;;14.05;8.88;;;;;;;-142.75;100.00;78618.03;5039992;28;20667;-66
2022/04/15 06:09:48;;;;;;;15.85;8.68;;;;;;;-142.75;100.00;78618.03;5038393;28;20115;-66
2022/04/15 06:12:13;;;;;;;15.25;8.40;;;;;;;-142.75;100.00;78612.13;5039236;28;20070;-66
2022/04/15 06:14:39;;;;;;;15.35;8.85;;;;;;;-142.75;100.00;78602.28;5039299;28;20302;-66
2022/04/15 06:17:04;;;;;;;16.40;9.00;;;;;;;-142.75;100.00;78606.22;5038699;28;20090;-66
2022/04/15 06:19:30;;;;;;;14.10;7.88;;;;;;;-142.75;100.00;78594.41;5038626;28;20041;-66
2022/04/15 06:21:55;;;;;;;16.77;7.78;;;;;;;-142.75;100.00;78606.22;5038950;28;20135;-66
2022/04/15 06:24:20;;;;;;;14.30;7.60;;;;;;;-142.75;100.00;78625.91;5037270;28;20044;-66
2022/04/15 06:26:46;;;;;;;16.17;8.13;;;;;;;-142.75;100.00;78625.91;4982885;28;20021;-64
2022/04/15 06:29:11;;;;;;;12.85;7.70;;;;;;;-142.75;100.00;78621.97;4968690;28;20480;-65
2022/04/15 06:31:37;;;;;;;11.63;7.22;;;;;;;-142.75;100.00;78608.19;4969714;28;20377;-65
2022/04/15 06:34:03;;;;;;;12.23;7.47;;;;;;;-142.75;100.00;78610.16;4972706;28;20326;-65
2022/04/15 06:36:28;;;;;;;12.93;7.22;;;;;;;-142.75;100.00;78618.03;4970498;28;20029;-64
2022/04/15 06:38:54;;;;;;;10.77;6.78;;;;;;;-142.75;100.00;78598.34;4968850;28;20234;-64
2022/04/15 06:41:19;;;;;;;12.60;7.63;;;;;;;-142.75;100.00;78602.28;4966386;28;20449;-65
2022/04/15 06:43:45;;;;;;;15.50;6.80;;;;;;;-142.75;100.00;78592.44;4968919;28;20052;-65
2022/04/15 06:46:10;;;;;;;13.85;6.97;;;;;;;-142.75;100.00;78594.41;4969180;28;20025;-63
2022/04/15 06:48:35;;;;;;;10.38;7.20;;;;;;;-142.75;100.00;78584.56;4968656;28;20033;-63
2022/04/15 06:51:02;;;;;;;11.70;6.93;;;;;;;-142.75;100.00;78592.44;4967239;28;20307;-64
2022/04/15 06:53:28;;;;;;;14.07;8.30;;;;;;;-142.75;100.00;78598.34;4969250;28;20030;-64
2022/04/15 06:55:53;;;;;;;10.68;5.95;;;;;;;-142.75;100.00;78582.59;4968238;28;20041;-64
2022/04/15 06:58:19;;;;;;;12.50;7.00;;;;;;;-142.75;100.00;78590.47;4966418;28;20052;-64
2022/04/15 07:00:46;;;;;;;12.65;7.18;;;;;;;-142.75;100.00;78582.59;4970826;28;20033;-64
2022/04/15 07:03:12;;;;;;;12.70;6.47;;;;;;;-142.75;100.00;78580.59;4973356;28;20291;-64
2022/04/15 07:05:39;;;;;;;11.40;6.63;;;;;;;-142.75;100.00;78578.63;4988611;28;20186;-64
2022/04/15 07:08:08;;;;;;;11.45;6.25;;;;;;;-142.75;100.00;78582.59;4987592;28;20245;-64
2022/04/15 07:10:34;;;;;;;10.65;5.82;;;;;;;-142.75;100.00;78582.59;4987381;28;20037;-65
2022/04/15 07:13:00;;;;;;;10.90;6.43;;;;;;;-142.75;100.00;78576.66;4988346;28;20433;-64
2022/04/15 07:15:25;;;;;;;8.85;6.30;;;;;;;-142.75;100.00;78578.63;4988823;28;20136;-65
2022/04/15 07:17:51;;;;;;;12.20;6.13;;;;;;;-142.75;100.00;78584.56;4988160;28;20312;-63
2022/04/15 07:20:16;;;;;;;13.15;6.35;;;;;;;-142.75;100.00;78578.63;4988174;28;20025;-64
2022/04/15 07:22:43;;;;;;;11.93;5.88;;;;;;;-142.75;100.00;78582.59;4988390;28;20402;-64
2022/04/15 07:25:09;;;;;;;8.48;5.63;;;;;;;-142.75;100.00;78560.91;4988267;28;20845;-64
2022/04/15 07:27:34;;;;;;;10.68;5.97;;;;;;;-142.75;100.00;78562.88;4988333;28;20546;-64
2022/04/15 07:29:59;;;;;;;11.38;5.43;;;;;;;-142.75;100.00;78570.75;4987191;28;20028;-64
2022/04/15 07:32:27;;;;;;;9.65;5.43;;;;;;;-142.75;100.00;78570.75;4994578;28;20021;-65
2022/04/15 07:34:52;;;;;;;7.13;5.00;;;;;;;-142.75;100.00;78574.69;4994041;28;20245;-64
2022/04/15 07:37:18;;;;;;;12.02;4.80;;;;;;;-142.75;100.00;78572.72;4994697;28;20523;-66
2022/04/15 07:39:44;;;;;;;10.27;4.63;;;;;;;-142.75;100.00;78566.81;4994280;28;20155;-65
2022/04/15 07:42:11;;;;;;;9.60;4.78;;;;;;;-142.75;100.00;78582.59;4993174;28;20032;-64
2022/04/15 07:44:37;;;;;;;9.80;4.75;;;;;;;-142.75;100.00;78594.41;4995132;28;20167;-65
2022/04/15 07:47:03;;;;;;;8.55;4.55;;;;;;;-142.75;100.00;78570.75;4994728;28;20377;-65
2022/04/15 07:49:28;;;;;;;8.63;4.72;;;;;;;-142.75;100.00;78584.56;4994872;28;20578;-64
2022/04/15 07:51:54;;;;;;;8.20;4.25;;;;;;;-142.75;100.00;78562.88;4994980;28;20025;-64
2022/04/15 07:54:19;;;;;;;8.02;4.20;;;;;;;-142.75;100.00;78553.03;4993540;28;20025;-64
2022/04/15 07:56:44;;;;;;;7.22;4.15;;;;;;;-142.75;100.00;78539.25;4995017;28;20472;-64
2022/04/15 07:59:10;;;;;;;6.40;3.85;;;;;;;-142.75;100.00;78531.38;4994032;28;20217;-64
2022/04/15 08:01:35;;;;;;;7.65;4.03;;;;;;;-142.75;100.00;78535.31;4995397;28;20381;-64
2022/04/15 08:04:00;;;;;;;10.32;4.15;;;;;;;-142.75;100.00;78543.19;4994873;28;20021;-65
2022/04/15 08:06:28;;;;;;;6.97;3.95;;;;;;;-142.75;100.00;78533.34;4995212;28;20013;-64
2022/04/15 08:08:55;;;;;;;9.02;4.00;;;;;;;-142.75;100.00;78543.19;4994216;28;20033;-64
2022/04/15 08:11:24;;;;;;;6.78;3.70;;;;;;;-142.75;100.00;78535.31;4992877;28;20248;-64
2022/04/15 08:13:49;;;;;;;6.32;3.40;;;;;;;-142.75;100.00;78511.69;4992588;28;20027;-65
2022/04/15 08:16:15;;;;;;;6.47;3.13;;;;;;;-142.75;100.00;78505.78;4994352;28;20024;-63
2022/04/15 08:18:41;;;;;;;7.75;3.13;;;;;;;-142.75;100.00;78480.16;4994573;28;20339;-63
2022/04/15 08:21:07;;;;;;;5.72;3.38;;;;;;;-142.75;100.00;78480.16;4992837;28;20087;-63
2022/04/15 08:23:33;;;;;;;5.43;3.17;;;;;;;-142.75;100.00;78480.16;4994785;28;20258;-64
2022/04/15 08:25:58;;;;;;;7.30;2.90;;;;;;;-142.75;100.00;78468.34;4984283;28;20077;-64
2022/04/15 08:28:23;;;;;;;6.60;3.08;;;;;;;-142.75;100.00;78472.28;4974033;28;20160;-64
2022/04/15 08:30:49;;;;;;;5.68;2.83;;;;;;;-142.75;100.00;78460.47;4972899;28;20730;-64
2022/04/15 08:33:14;;;;;;;8.18;2.97;;;;;;;-142.75;100.00;78460.47;4972741;28;20578;-64
2022/04/15 08:35:40;;;;;;;6.78;2.90;;;;;;;-142.75;100.00;78464.41;4971950;28;20025;-64
2022/04/15 08:38:05;;;;;;;8.30;2.80;;;;;;;-142.75;100.00;78468.34;4972227;28;20484;-65
2022/04/15 08:40:35;;;;;;;6.97;2.83;;;;;;;-142.75;100.00;78464.41;4983532;28;20924;-64
2022/04/15 08:43:02;;;;;;;8.48;2.95;;;;;;;-142.75;100.00;78454.56;4989324;28;20017;-65
2022/04/15 08:45:28;;;;;;;4.32;2.78;;;;;;;-142.75;100.00;78450.63;4991557;28;20529;-64
2022/04/15 08:48:00;;;;;;;5.63;2.72;;;;;;;-142.75;100.00;78442.75;4990302;28;20187;-64
2022/04/15 08:50:27;;;;;;;4.35;2.55;;;;;;;-142.75;100.00;78417.16;4991126;28;20056;-64
2022/04/15 08:52:57;;;;;;;7.22;2.75;;;;;;;-142.75;100.00;78417.16;4991092;28;20021;-64
2022/04/15 08:55:23;;;;;;;5.47;2.70;;;;;;;-142.75;100.00;78389.56;4990942;28;20581;-65
2022/04/15 08:57:49;;;;;;;7.45;2.55;;;;;;;-142.75;100.00;78369.88;4990782;28;20124;-65
2022/04/15 09:00:16;;;;;;;4.07;2.38;;;;;;;-142.75;100.00;78381.69;4980874;28;20912;-65
2022/04/15 09:02:41;;;;;;;5.72;2.80;;;;;;;-142.75;100.00;78342.31;4971764;28;20168;-64
2022/04/15 09:05:07;;;;;;;4.65;2.65;;;;;;;-142.75;100.00;78350.19;4970973;28;20528;-64
2022/04/15 09:07:35;;;;;;;6.47;2.90;;;;;;;-142.75;100.00;78354.13;4971471;28;20267;-65
2022/04/15 09:10:01;;;;;;;6.35;3.55;;;;;;;-142.75;100.00;78332.47;4970032;28;20198;-65
2022/04/15 09:12:35;;;;;;;5.80;2.90;;;;;;;-142.75;100.00;78352.16;4985994;28;20339;-64
2022/04/15 09:15:11;;;;;;;7.18;2.90;;;;;;;-142.75;100.00;78318.69;4990896;28;20388;-64
2022/04/15 09:17:42;;;;;;;7.18;2.15;;;;;;;-142.75;100.00;78316.72;4989845;28;20171;-64
2022/04/15 09:20:09;;;;;;;4.13;2.72;;;;;;;-142.75;100.00;78338.38;4990236;28;20020;-65
2022/04/15 09:22:35;;;;;;;4.88;2.72;;;;;;;-142.75;100.00;78360.03;4991005;28;20090;-65
2022/04/15 09:25:01;;;;;;;;;;;;;;;-142.75;100.00;78334.44;4985616;28;20025;-65
2022/04/15 09:27:27;;;;;;;7.03;4.00;;;;;;;-142.75;100.00;78340.34;4989567;28;19912;-64
2022/04/15 09:29:54;;;;;;;5.75;2.60;;;;;;;-142.75;100.00;78365.94;4970595;28;20374;-64
2022/04/15 09:32:22;;;;;;;7.53;3.70;;;;;;;-142.75;100.00;78348.22;4972798;28;20798;-64
2022/04/15 09:35:00;;;;;;;5.53;3.22;;;;;;;-142.75;100.00;78330.50;4985923;28;20035;-64
2022/04/15 09:37:29;;;;;;;2.80;1.90;;;;;;;-142.75;100.00;78328.53;4989209;28;20180;-64
2022/04/15 09:40:26;;;;;;;5.32;2.53;;;;;;;-142.75;100.00;78326.56;4987597;28;20160;-64
2022/04/15 09:42:56;;;;;;;4.88;2.80;;;;;;;-142.75;100.00;78336.41;4990311;28;20079;-64
2022/04/15 09:45:22;;;;;;;4.78;2.40;;;;;;;-142.75;100.00;78316.72;4990269;28;20245;-64
2022/04/15 09:47:58;;;;;;;6.80;2.90;;;;;;;-142.75;100.00;78275.34;4989266;28;20028;-64
2022/04/15 09:50:43;;;;;;;4.25;2.67;;;;;;;-142.75;100.00;78241.88;4980518;28;20397;-64
2022/04/15 09:53:16;;;;;;;4.65;2.63;;;;;;;-142.75;100.00;78214.31;4988041;28;20186;-64
2022/04/15 09:55:46;;;;;;;8.65;2.85;;;;;;;-142.75;100.00;78184.78;4989907;28;20021;-64
2022/04/15 09:58:19;;;;;;;5.47;2.67;;;;;;;-142.75;100.00;78161.13;4989350;28;20071;-66
2022/04/15 10:00:51;;;;;;;3.95;2.40;;;;;;;-142.75;100.00;78111.91;4978269;28;20182;-63
2022/04/15 10:03:27;;;;;;;6.95;2.83;;;;;;;-142.75;100.00;78074.50;4988220;28;20020;-64
2022/04/15 10:05:54;;;;;;;6.72;2.85;;;;;;;-142.75;100.00;78111.91;4989619;28;20190;-63
2022/04/15 10:08:22;;;;;;;6.68;2.42;;;;;;;-142.75;100.00;78102.06;4977212;28;20430;-64
2022/04/15 10:10:49;;;;;;;6.68;3.08;;;;;;;-142.75;100.00;78084.34;4967746;28;20065;-64
2022/04/15 10:13:14;;;;;;;6.03;2.30;;;;;;;-142.75;100.00;78094.19;4969609;28;20032;-63
2022/04/15 10:15:41;;;;;;;3.80;2.83;;;;;;;-142.75;100.00;78119.78;4969079;28;20314;-63
2022/04/15 10:18:08;;;;;;;7.03;2.58;;;;;;;-142.75;100.00;78060.72;4968715;28;20514;-64
2022/04/15 10:20:33;;;;;;;5.15;3.13;;;;;;;-142.75;100.00;78011.47;4969958;28;20357;-64
2022/04/15 10:23:02;;;;;;;8.07;2.20;;;;;;;-142.75;100.00;77999.66;4968197;28;20550;-65
2022/04/15 10:25:29;;;;;;;5.88;3.03;;;;;;;-142.75;100.00;77936.66;4971346;28;20172;-64
2022/04/15 10:28:04;;;;;;;5.03;2.60;;;;;;;-142.75;100.00;77960.28;4967330;28;20669;-63
2022/04/15 10:30:30;;;;;;;4.97;2.80;;;;;;;-142.75;100.00;77966.19;4988622;28;20237;-63
2022/04/15 10:32:57;;;;;;;5.57;2.35;;;;;;;-142.75;100.00;77991.78;4989177;28;20845;-63
2022/04/15 10:35:31;;;;;;;4.72;2.47;;;;;;;-142.75;100.00;77978.00;4977754;28;20078;-65
2022/04/15 10:38:11;;;;;;;5.25;2.30;;;;;;;-142.75;100.00;77999.66;4972922;28;20410;-63
2022/04/15 10:40:36;;;;;;;4.70;2.55;;;;;;;-142.75;100.00;77979.97;4973598;28;20080;-66
2022/04/15 10:43:21;;;;;;;5.85;2.50;;;;;;;-142.75;100.00;77940.59;4973101;28;20255;-66
2022/04/15 10:45:47;;;;;;;5.07;2.55;;;;;;;-142.75;100.00;77840.16;4983705;28;20021;-66
2022/04/15 10:48:12;;;;;;;4.57;2.60;;;;;;;-142.75;100.00;77857.88;4975485;28;20041;-67
2022/04/15 10:50:40;;;;;;;3.10;2.22;;;;;;;-142.75;100.00;77891.34;4972105;28;20101;-65
2022/04/15 10:53:38;;;;;;;6.00;2.60;;;;;;;-142.75;100.00;77881.50;4972970;28;20029;-64
2022/04/15 10:56:08;;;;;;;7.57;2.35;;;;;;;-142.75;100.00;77812.59;4954551;28;20561;-65
2022/04/15 11:02:02;;;;;;;5.68;2.00;;;;;;;-142.75;100.00;77674.75;4982788;28;20095;-64
2022/04/15 11:04:35;;;;;;;4.53;2.08;;;;;;;-142.75;100.00;77688.53;4972418;28;20472;-64